Alvadore, Oregon
Current Conditions -  °F | °C
As of 12:54 AM on Thursday 23 Oct 2014 (Local Time) from KEUG Reporting Station
Overcast Overcast  
Wind Chill: 57°   Ceiling: 3400
Heat Index: 57°   Visibility: 10mi
Dew Point: 55°   Wind: 8mph
Humidity: 93%   Direction: 190°S
Pressure: 29.81"   Gusts: NA
Location:  44.13°N, 123.26°W
Report Text: KEUG 230754Z AUTO 19007KT 10SM BKN034 OVC100 14/13 A2981 RMK AO2 SLP092 T01390128 401940128
Loading
Personal Weather Stations






























Interactive Weather Map
Tropical Storm Tracking
New forecast layout! Learn more

10-Day Weather Forecast

Advertisements
Track Severe Weather on mobile